sensor_id;sensor_type;location;lat;lon;timestamp;temperature;humidity
37910;DHT22;23741;49.446;8.754;2022-10-16T00:00:50;19.80;77.60
37910;DHT22;23741;49.446;8.754;2022-10-16T00:02:52;19.80;77.60
37910;DHT22;23741;49.446;8.754;2022-10-16T00:04:54;19.80;77.50
37910;DHT22;23741;49.446;8.754;2022-10-16T00:06:56;19.80;77.40
37910;DHT22;23741;49.446;8.754;2022-10-16T00:09:00;19.90;77.50
37910;DHT22;23741;49.446;8.754;2022-10-16T00:11:10;19.80;77.50
37910;DHT22;23741;49.446;8.754;2022-10-16T00:13:12;19.80;77.50
37910;DHT22;23741;49.446;8.754;2022-10-16T00:15:14;19.80;77.50
37910;DHT22;23741;49.446;8.754;2022-10-16T00:17:16;19.80;77.50
37910;DHT22;23741;49.446;8.754;2022-10-16T00:19:17;19.80;77.50
37910;DHT22;23741;49.446;8.754;2022-10-16T00:21:21;19.80;77.40
37910;DHT22;23741;49.446;8.754;2022-10-16T00:23:23;19.80;77.40
37910;DHT22;23741;49.446;8.754;2022-10-16T00:25:25;19.90;77.40
37910;DHT22;23741;49.446;8.754;2022-10-16T00:27:26;19.80;77.40
37910;DHT22;23741;49.446;8.754;2022-10-16T00:29:28;19.80;77.40
37910;DHT22;23741;49.446;8.754;2022-10-16T00:31:31;19.80;77.40
37910;DHT22;23741;49.446;8.754;2022-10-16T00:33:33;19.80;77.40
37910;DHT22;23741;49.446;8.754;2022-10-16T00:35:35;19.80;77.50
37910;DHT22;23741;49.446;8.754;2022-10-16T00:37:36;19.80;77.50
37910;DHT22;23741;49.446;8.754;2022-10-16T00:39:38;19.80;77.40
37910;DHT22;23741;49.446;8.754;2022-10-16T00:41:40;19.80;77.40
37910;DHT22;23741;49.446;8.754;2022-10-16T00:43:43;19.80;77.50
37910;DHT22;23741;49.446;8.754;2022-10-16T00:45:45;19.80;77.50
37910;DHT22;23741;49.446;8.754;2022-10-16T00:47:46;19.80;77.50
37910;DHT22;23741;49.446;8.754;2022-10-16T00:49:51;19.80;77.50
37910;DHT22;23741;49.446;8.754;2022-10-16T00:51:54;19.80;77.50
37910;DHT22;23741;49.446;8.754;2022-10-16T00:53:56;19.80;77.50
37910;DHT22;23741;49.446;8.754;2022-10-16T00:55:58;19.80;77.60
37910;DHT22;23741;49.446;8.754;2022-10-16T00:57:59;19.80;77.60
37910;DHT22;23741;49.446;8.754;2022-10-16T01:00:02;19.90;77.70
37910;DHT22;23741;49.446;8.754;2022-10-16T01:02:05;19.90;77.70
37910;DHT22;23741;49.446;8.754;2022-10-16T01:04:07;19.80;77.60
37910;DHT22;23741;49.446;8.754;2022-10-16T01:06:16;19.90;77.70
37910;DHT22;23741;49.446;8.754;2022-10-16T01:08:32;19.90;77.70
37910;DHT22;23741;49.446;8.754;2022-10-16T01:10:38;19.90;77.60
37910;DHT22;23741;49.446;8.754;2022-10-16T01:17:02;19.90;77.60
37910;DHT22;23741;49.446;8.754;2022-10-16T01:21:26;19.90;77.60
37910;DHT22;23741;49.446;8.754;2022-10-16T01:23:50;19.90;77.50
37910;DHT22;23741;49.446;8.754;2022-10-16T01:28:15;19.90;77.50
37910;DHT22;23741;49.446;8.754;2022-10-16T01:30:18;19.90;77.50
37910;DHT22;23741;49.446;8.754;2022-10-16T01:32:31;19.90;77.60
37910;DHT22;23741;49.446;8.754;2022-10-16T01:34:35;19.90;77.60
37910;DHT22;23741;49.446;8.754;2022-10-16T01:36:42;19.90;77.50
37910;DHT22;23741;49.446;8.754;2022-10-16T01:38:46;20.00;77.60
37910;DHT22;23741;49.446;8.754;2022-10-16T01:40:52;20.00;77.50
37910;DHT22;23741;49.446;8.754;2022-10-16T01:43:00;20.00;77.50
37910;DHT22;23741;49.446;8.754;2022-10-16T01:45:03;20.00;77.50
37910;DHT22;23741;49.446;8.754;2022-10-16T01:47:08;20.00;77.50
37910;DHT22;23741;49.446;8.754;2022-10-16T01:49:10;20.00;77.50
37910;DHT22;23741;49.446;8.754;2022-10-16T01:51:13;20.00;77.50
37910;DHT22;23741;49.446;8.754;2022-10-16T01:53:16;20.00;77.50
37910;DHT22;23741;49.446;8.754;2022-10-16T01:55:20;20.00;77.50
37910;DHT22;23741;49.446;8.754;2022-10-16T01:57:23;20.00;77.50
37910;DHT22;23741;49.446;8.754;2022-10-16T01:59:26;20.00;77.50
37910;DHT22;23741;49.446;8.754;2022-10-16T02:01:31;20.00;77.40
37910;DHT22;23741;49.446;8.754;2022-10-16T02:03:34;20.00;77.40
37910;DHT22;23741;49.446;8.754;2022-10-16T02:07:39;20.00;77.40
37910;DHT22;23741;49.446;8.754;2022-10-16T02:09:43;20.00;77.50
37910;DHT22;23741;49.446;8.754;2022-10-16T02:11:45;20.00;77.40
37910;DHT22;23741;49.446;8.754;2022-10-16T02:13:55;20.00;77.50
37910;DHT22;23741;49.446;8.754;2022-10-16T02:15:59;20.00;77.50
37910;DHT22;23741;49.446;8.754;2022-10-16T02:18:01;20.00;77.40
37910;DHT22;23741;49.446;8.754;2022-10-16T02:20:03;20.00;77.50
37910;DHT22;23741;49.446;8.754;2022-10-16T02:22:06;20.00;77.50
37910;DHT22;23741;49.446;8.754;2022-10-16T02:24:10;20.00;77.40
37910;DHT22;23741;49.446;8.754;2022-10-16T02:26:13;20.00;77.40
37910;DHT22;23741;49.446;8.754;2022-10-16T02:28:17;20.00;77.40
37910;DHT22;23741;49.446;8.754;2022-10-16T02:30:34;20.00;77.40
37910;DHT22;23741;49.446;8.754;2022-10-16T02:32:38;20.00;77.40
37910;DHT22;23741;49.446;8.754;2022-10-16T02:34:41;20.00;77.40
37910;DHT22;23741;49.446;8.754;2022-10-16T02:36:43;20.00;77.40
37910;DHT22;23741;49.446;8.754;2022-10-16T02:38:45;20.00;77.40
37910;DHT22;23741;49.446;8.754;2022-10-16T02:40:47;20.00;77.40
37910;DHT22;23741;49.446;8.754;2022-10-16T02:42:50;20.00;77.40
37910;DHT22;23741;49.446;8.754;2022-10-16T02:44:52;20.00;77.40
37910;DHT22;23741;49.446;8.754;2022-10-16T02:46:54;20.00;77.40
37910;DHT22;23741;49.446;8.754;2022-10-16T02:48:56;20.00;77.40
37910;DHT22;23741;49.446;8.754;2022-10-16T02:50:57;20.00;77.30
37910;DHT22;23741;49.446;8.754;2022-10-16T02:52:59;20.00;77.40
37910;DHT22;23741;49.446;8.754;2022-10-16T02:55:01;20.00;77.40
37910;DHT22;23741;49.446;8.754;2022-10-16T02:57:02;20.00;77.30
37910;DHT22;23741;49.446;8.754;2022-10-16T02:59:04;20.00;77.30
37910;DHT22;23741;49.446;8.754;2022-10-16T03:01:06;20.00;77.30
37910;DHT22;23741;49.446;8.754;2022-10-16T03:03:07;20.00;77.30
37910;DHT22;23741;49.446;8.754;2022-10-16T03:05:09;20.00;77.20
37910;DHT22;23741;49.446;8.754;2022-10-16T03:07:11;20.00;77.20
37910;DHT22;23741;49.446;8.754;2022-10-16T03:09:12;20.00;77.20
37910;DHT22;23741;49.446;8.754;2022-10-16T03:11:14;20.00;77.20
37910;DHT22;23741;49.446;8.754;2022-10-16T03:13:16;20.00;77.20
37910;DHT22;23741;49.446;8.754;2022-10-16T03:15:17;20.00;77.20
37910;DHT22;23741;49.446;8.754;2022-10-16T03:17:19;20.00;77.20
37910;DHT22;23741;49.446;8.754;2022-10-16T03:19:21;20.00;77.10
37910;DHT22;23741;49.446;8.754;2022-10-16T03:21:23;20.00;77.20
37910;DHT22;23741;49.446;8.754;2022-10-16T03:23:25;20.00;77.10
37910;DHT22;23741;49.446;8.754;2022-10-16T03:25:26;20.00;77.10
37910;DHT22;23741;49.446;8.754;2022-10-16T03:27:28;19.90;77.20
37910;DHT22;23741;49.446;8.754;2022-10-16T03:29:30;19.90;77.10
37910;DHT22;23741;49.446;8.754;2022-10-16T03:31:33;19.90;77.10
37910;DHT22;23741;49.446;8.754;2022-10-16T03:33:35;20.00;77.10
37910;DHT22;23741;49.446;8.754;2022-10-16T03:35:36;19.90;77.10
37910;DHT22;23741;49.446;8.754;2022-10-16T03:37:38;19.90;77.10
37910;DHT22;23741;49.446;8.754;2022-10-16T03:39:40;19.90;77.10
37910;DHT22;23741;49.446;8.754;2022-10-16T03:41:41;19.90;77.10
37910;DHT22;23741;49.446;8.754;2022-10-16T03:43:43;20.00;77.20
37910;DHT22;23741;49.446;8.754;2022-10-16T03:45:45;19.90;77.10
37910;DHT22;23741;49.446;8.754;2022-10-16T03:47:47;19.90;77.10
37910;DHT22;23741;49.446;8.754;2022-10-16T03:49:49;19.90;77.10
37910;DHT22;23741;49.446;8.754;2022-10-16T03:51:51;19.90;77.10
37910;DHT22;23741;49.446;8.754;2022-10-16T03:53:52;19.90;77.10
37910;DHT22;23741;49.446;8.754;2022-10-16T03:55:54;19.90;77.00
37910;DHT22;23741;49.446;8.754;2022-10-16T03:57:56;19.90;77.00
37910;DHT22;23741;49.446;8.754;2022-10-16T03:59:57;19.80;77.00
37910;DHT22;23741;49.446;8.754;2022-10-16T04:01:59;19.90;77.10
37910;DHT22;23741;49.446;8.754;2022-10-16T04:04:01;19.80;77.00
37910;DHT22;23741;49.446;8.754;2022-10-16T04:06:02;19.80;77.00
37910;DHT22;23741;49.446;8.754;2022-10-16T04:08:04;19.80;77.00
37910;DHT22;23741;49.446;8.754;2022-10-16T04:10:06;19.80;77.10
37910;DHT22;23741;49.446;8.754;2022-10-16T04:12:07;19.80;77.00
37910;DHT22;23741;49.446;8.754;2022-10-16T04:14:09;19.80;77.00
37910;DHT22;23741;49.446;8.754;2022-10-16T04:16:11;19.80;77.10
37910;DHT22;23741;49.446;8.754;2022-10-16T04:18:12;19.80;77.10
37910;DHT22;23741;49.446;8.754;2022-10-16T04:20:14;19.80;77.10
37910;DHT22;23741;49.446;8.754;2022-10-16T04:22:16;19.80;77.10
37910;DHT22;23741;49.446;8.754;2022-10-16T04:24:18;19.80;77.10
37910;DHT22;23741;49.446;8.754;2022-10-16T04:26:20;19.80;77.10
37910;DHT22;23741;49.446;8.754;2022-10-16T04:28:21;19.80;77.10
37910;DHT22;23741;49.446;8.754;2022-10-16T04:30:23;19.80;77.10
37910;DHT22;23741;49.446;8.754;2022-10-16T04:32:25;19.80;77.10
37910;DHT22;23741;49.446;8.754;2022-10-16T04:34:27;19.80;77.10
37910;DHT22;23741;49.446;8.754;2022-10-16T04:36:28;19.80;77.10
37910;DHT22;23741;49.446;8.754;2022-10-16T04:38:30;19.80;77.20
37910;DHT22;23741;49.446;8.754;2022-10-16T04:40:32;19.80;77.20
37910;DHT22;23741;49.446;8.754;2022-10-16T04:42:34;19.80;77.20
37910;DHT22;23741;49.446;8.754;2022-10-16T04:44:35;19.80;77.30
37910;DHT22;23741;49.446;8.754;2022-10-16T04:46:37;19.80;77.20
37910;DHT22;23741;49.446;8.754;2022-10-16T04:48:39;19.80;77.20
37910;DHT22;23741;49.446;8.754;2022-10-16T04:50:40;19.80;77.20
37910;DHT22;23741;49.446;8.754;2022-10-16T04:52:42;19.80;77.30
37910;DHT22;23741;49.446;8.754;2022-10-16T04:54:44;19.80;77.30
37910;DHT22;23741;49.446;8.754;2022-10-16T04:56:46;19.80;77.30
37910;DHT22;23741;49.446;8.754;2022-10-16T04:58:49;19.80;77.30
37910;DHT22;23741;49.446;8.754;2022-10-16T05:00:50;19.80;77.30
37910;DHT22;23741;49.446;8.754;2022-10-16T05:02:52;19.80;77.30
37910;DHT22;23741;49.446;8.754;2022-10-16T05:04:54;19.80;77.30
37910;DHT22;23741;49.446;8.754;2022-10-16T05:06:56;19.80;77.30
37910;DHT22;23741;49.446;8.754;2022-10-16T05:08:57;19.80;77.30
37910;DHT22;23741;49.446;8.754;2022-10-16T05:10:59;19.80;77.30
37910;DHT22;23741;49.446;8.754;2022-10-16T05:13:01;19.80;77.30
37910;DHT22;23741;49.446;8.754;2022-10-16T05:15:03;19.80;77.30
37910;DHT22;23741;49.446;8.754;2022-10-16T05:17:05;19.80;77.20
37910;DHT22;23741;49.446;8.754;2022-10-16T05:19:06;19.80;78.00
37910;DHT22;23741;49.446;8.754;2022-10-16T05:21:28;19.80;77.20
37910;DHT22;23741;49.446;8.754;2022-10-16T05:23:30;19.80;77.20
37910;DHT22;23741;49.446;8.754;2022-10-16T05:25:31;19.80;77.20
37910;DHT22;23741;49.446;8.754;2022-10-16T05:27:33;19.80;77.20
37910;DHT22;23741;49.446;8.754;2022-10-16T05:29:34;19.80;77.20
37910;DHT22;23741;49.446;8.754;2022-10-16T05:31:36;19.80;77.10
37910;DHT22;23741;49.446;8.754;2022-10-16T05:33:38;19.80;77.10
37910;DHT22;23741;49.446;8.754;2022-10-16T05:35:40;19.80;77.90
37910;DHT22;23741;49.446;8.754;2022-10-16T05:37:42;19.80;77.10
37910;DHT22;23741;49.446;8.754;2022-10-16T05:39:44;19.80;77.10
37910;DHT22;23741;49.446;8.754;2022-10-16T05:41:45;19.80;77.10
37910;DHT22;23741;49.446;8.754;2022-10-16T05:43:48;19.80;77.10
37910;DHT22;23741;49.446;8.754;2022-10-16T05:45:56;19.80;77.10
37910;DHT22;23741;49.446;8.754;2022-10-16T05:47:57;19.80;77.10
37910;DHT22;23741;49.446;8.754;2022-10-16T05:49:59;19.80;78.00
37910;DHT22;23741;49.446;8.754;2022-10-16T05:52:01;19.80;77.30
37910;DHT22;23741;49.446;8.754;2022-10-16T05:54:03;19.80;77.10
37910;DHT22;23741;49.446;8.754;2022-10-16T05:56:05;19.80;77.00
37910;DHT22;23741;49.446;8.754;2022-10-16T05:58:06;19.80;77.00
37910;DHT22;23741;49.446;8.754;2022-10-16T06:00:08;19.80;77.00
37910;DHT22;23741;49.446;8.754;2022-10-16T06:02:13;19.70;77.00
37910;DHT22;23741;49.446;8.754;2022-10-16T06:04:15;19.70;77.00
37910;DHT22;23741;49.446;8.754;2022-10-16T06:06:18;19.70;77.00
37910;DHT22;23741;49.446;8.754;2022-10-16T06:08:21;19.70;77.00
37910;DHT22;23741;49.446;8.754;2022-10-16T06:10:23;19.80;77.10
37910;DHT22;23741;49.446;8.754;2022-10-16T06:12:25;19.70;77.10
37910;DHT22;23741;49.446;8.754;2022-10-16T06:14:28;19.70;77.10
37910;DHT22;23741;49.446;8.754;2022-10-16T06:16:29;19.80;77.10
37910;DHT22;23741;49.446;8.754;2022-10-16T06:18:31;19.70;77.10
37910;DHT22;23741;49.446;8.754;2022-10-16T06:20:33;19.70;77.00
37910;DHT22;23741;49.446;8.754;2022-10-16T06:22:34;19.70;77.10
37910;DHT22;23741;49.446;8.754;2022-10-16T06:24:36;19.80;77.10
37910;DHT22;23741;49.446;8.754;2022-10-16T06:26:38;19.70;77.10
37910;DHT22;23741;49.446;8.754;2022-10-16T06:28:40;19.70;77.10
37910;DHT22;23741;49.446;8.754;2022-10-16T06:30:42;19.70;77.10
37910;DHT22;23741;49.446;8.754;2022-10-16T06:32:45;19.80;77.20
37910;DHT22;23741;49.446;8.754;2022-10-16T06:34:47;19.70;77.10
37910;DHT22;23741;49.446;8.754;2022-10-16T06:36:48;19.70;77.10
37910;DHT22;23741;49.446;8.754;2022-10-16T06:38:50;19.70;77.10
37910;DHT22;23741;49.446;8.754;2022-10-16T06:40:53;19.70;77.10
37910;DHT22;23741;49.446;8.754;2022-10-16T06:42:55;19.70;77.20
37910;DHT22;23741;49.446;8.754;2022-10-16T06:44:56;19.70;77.20
37910;DHT22;23741;49.446;8.754;2022-10-16T06:46:58;19.80;77.20
37910;DHT22;23741;49.446;8.754;2022-10-16T06:49:00;19.70;77.20
37910;DHT22;23741;49.446;8.754;2022-10-16T06:51:02;19.70;77.20
37910;DHT22;23741;49.446;8.754;2022-10-16T06:53:05;19.70;77.20
37910;DHT22;23741;49.446;8.754;2022-10-16T06:55:07;19.70;77.20
37910;DHT22;23741;49.446;8.754;2022-10-16T06:57:09;19.70;77.30
37910;DHT22;23741;49.446;8.754;2022-10-16T06:59:11;19.70;78.10
37910;DHT22;23741;49.446;8.754;2022-10-16T07:01:12;19.80;77.30
37910;DHT22;23741;49.446;8.754;2022-10-16T07:03:15;19.70;77.30
37910;DHT22;23741;49.446;8.754;2022-10-16T07:05:16;19.70;77.30
37910;DHT22;23741;49.446;8.754;2022-10-16T07:07:18;19.80;77.40
37910;DHT22;23741;49.446;8.754;2022-10-16T07:09:20;19.70;77.30
37910;DHT22;23741;49.446;8.754;2022-10-16T07:11:22;19.80;77.30
37910;DHT22;23741;49.446;8.754;2022-10-16T07:13:24;19.80;77.40
37910;DHT22;23741;49.446;8.754;2022-10-16T07:15:26;19.80;77.40
37910;DHT22;23741;49.446;8.754;2022-10-16T07:17:28;19.80;77.40
37910;DHT22;23741;49.446;8.754;2022-10-16T07:19:29;19.80;77.50
37910;DHT22;23741;49.446;8.754;2022-10-16T07:21:35;19.80;77.50
37910;DHT22;23741;49.446;8.754;2022-10-16T07:23:37;19.80;77.50
37910;DHT22;23741;49.446;8.754;2022-10-16T07:25:39;19.80;77.60
37910;DHT22;23741;49.446;8.754;2022-10-16T07:27:41;19.80;77.60
37910;DHT22;23741;49.446;8.754;2022-10-16T07:29:42;19.80;77.70
37910;DHT22;23741;49.446;8.754;2022-10-16T07:31:44;19.90;77.70
37910;DHT22;23741;49.446;8.754;2022-10-16T07:33:46;19.90;77.70
37910;DHT22;23741;49.446;8.754;2022-10-16T07:35:50;19.90;77.70
37910;DHT22;23741;49.446;8.754;2022-10-16T07:37:51;19.90;77.80
37910;DHT22;23741;49.446;8.754;2022-10-16T07:39:53;19.90;77.80
37910;DHT22;23741;49.446;8.754;2022-10-16T07:41:55;19.90;77.90
37910;DHT22;23741;49.446;8.754;2022-10-16T07:43:57;20.00;78.10
37910;DHT22;23741;49.446;8.754;2022-10-16T07:46:01;20.00;78.00
37910;DHT22;23741;49.446;8.754;2022-10-16T07:48:07;20.00;78.10
37910;DHT22;23741;49.446;8.754;2022-10-16T07:50:08;20.00;78.10
37910;DHT22;23741;49.446;8.754;2022-10-16T07:52:10;20.00;78.10
37910;DHT22;23741;49.446;8.754;2022-10-16T07:54:12;20.00;78.10
37910;DHT22;23741;49.446;8.754;2022-10-16T07:56:13;20.10;78.20
37910;DHT22;23741;49.446;8.754;2022-10-16T07:58:15;20.10;78.20
37910;DHT22;23741;49.446;8.754;2022-10-16T08:00:17;20.10;78.20
37910;DHT22;23741;49.446;8.754;2022-10-16T08:02:19;20.10;78.20
37910;DHT22;23741;49.446;8.754;2022-10-16T08:04:20;20.20;78.30
37910;DHT22;23741;49.446;8.754;2022-10-16T08:06:22;20.20;78.20
37910;DHT22;23741;49.446;8.754;2022-10-16T08:08:28;20.20;78.20
37910;DHT22;23741;49.446;8.754;2022-10-16T08:10:30;20.30;78.30
37910;DHT22;23741;49.446;8.754;2022-10-16T08:12:33;20.30;78.30
37910;DHT22;23741;49.446;8.754;2022-10-16T08:14:34;20.30;78.30
37910;DHT22;23741;49.446;8.754;2022-10-16T08:16:36;20.40;78.40
37910;DHT22;23741;49.446;8.754;2022-10-16T08:18:38;20.40;78.50
37910;DHT22;23741;49.446;8.754;2022-10-16T08:20:41;20.40;78.40
37910;DHT22;23741;49.446;8.754;2022-10-16T08:22:42;20.40;78.40
37910;DHT22;23741;49.446;8.754;2022-10-16T08:24:44;20.40;78.40
37910;DHT22;23741;49.446;8.754;2022-10-16T08:26:46;20.50;78.40
37910;DHT22;23741;49.446;8.754;2022-10-16T08:28:49;20.50;78.40
37910;DHT22;23741;49.446;8.754;2022-10-16T08:30:51;20.60;78.50
37910;DHT22;23741;49.446;8.754;2022-10-16T08:32:53;20.50;78.40
37910;DHT22;23741;49.446;8.754;2022-10-16T08:34:54;20.60;78.40
37910;DHT22;23741;49.446;8.754;2022-10-16T08:36:56;20.60;78.40
37910;DHT22;23741;49.446;8.754;2022-10-16T08:38:58;20.60;78.20
37910;DHT22;23741;49.446;8.754;2022-10-16T08:41:02;20.60;78.20
37910;DHT22;23741;49.446;8.754;2022-10-16T08:45:58;20.70;78.20
37910;DHT22;23741;49.446;8.754;2022-10-16T08:49:51;20.80;78.30
37910;DHT22;23741;49.446;8.754;2022-10-16T08:51:56;20.80;78.30
37910;DHT22;23741;49.446;8.754;2022-10-16T08:53:59;20.80;78.30
37910;DHT22;23741;49.446;8.754;2022-10-16T08:56:03;20.80;79.10
37910;DHT22;23741;49.446;8.754;2022-10-16T08:58:14;20.80;78.30
37910;DHT22;23741;49.446;8.754;2022-10-16T09:00:16;20.90;78.30
37910;DHT22;23741;49.446;8.754;2022-10-16T09:08:46;21.00;78.10
37910;DHT22;23741;49.446;8.754;2022-10-16T09:10:57;21.00;78.10
37910;DHT22;23741;49.446;8.754;2022-10-16T09:13:11;21.00;78.00
37910;DHT22;23741;49.446;8.754;2022-10-16T09:16:16;21.10;78.00
37910;DHT22;23741;49.446;8.754;2022-10-16T09:19:51;21.10;77.90
37910;DHT22;23741;49.446;8.754;2022-10-16T09:21:54;21.20;77.80
37910;DHT22;23741;49.446;8.754;2022-10-16T09:24:00;21.20;77.70
37910;DHT22;23741;49.446;8.754;2022-10-16T09:26:09;21.20;77.50
37910;DHT22;23741;49.446;8.754;2022-10-16T09:28:12;21.20;77.30
37910;DHT22;23741;49.446;8.754;2022-10-16T09:30:18;21.30;77.20
37910;DHT22;23741;49.446;8.754;2022-10-16T09:32:21;21.30;77.20
37910;DHT22;23741;49.446;8.754;2022-10-16T09:34:34;21.30;77.20
37910;DHT22;23741;49.446;8.754;2022-10-16T09:36:40;21.30;77.30
37910;DHT22;23741;49.446;8.754;2022-10-16T09:38:43;21.40;77.40
37910;DHT22;23741;49.446;8.754;2022-10-16T09:40:44;21.40;77.40
37910;DHT22;23741;49.446;8.754;2022-10-16T09:42:56;21.40;77.50
37910;DHT22;23741;49.446;8.754;2022-10-16T09:44:59;21.40;77.30
37910;DHT22;23741;49.446;8.754;2022-10-16T09:47:04;21.50;77.30
37910;DHT22;23741;49.446;8.754;2022-10-16T09:51:37;21.50;77.50
37910;DHT22;23741;49.446;8.754;2022-10-16T09:53:40;21.60;77.60
37910;DHT22;23741;49.446;8.754;2022-10-16T09:55:52;21.70;77.70
37910;DHT22;23741;49.446;8.754;2022-10-16T09:57:54;21.70;77.40
37910;DHT22;23741;49.446;8.754;2022-10-16T09:59:57;21.80;77.40
37910;DHT22;23741;49.446;8.754;2022-10-16T10:02:04;21.90;77.50
37910;DHT22;23741;49.446;8.754;2022-10-16T10:04:06;21.90;77.40
37910;DHT22;23741;49.446;8.754;2022-10-16T10:06:16;22.00;77.30
37910;DHT22;23741;49.446;8.754;2022-10-16T10:08:19;22.00;77.10
37910;DHT22;23741;49.446;8.754;2022-10-16T10:10:30;22.10;76.80
37910;DHT22;23741;49.446;8.754;2022-10-16T10:12:33;22.10;76.80
37910;DHT22;23741;49.446;8.754;2022-10-16T10:14:37;22.20;76.50
37910;DHT22;23741;49.446;8.754;2022-10-16T10:16:40;22.20;76.30
37910;DHT22;23741;49.446;8.754;2022-10-16T10:18:41;22.20;76.20
37910;DHT22;23741;49.446;8.754;2022-10-16T10:20:43;22.20;76.10
37910;DHT22;23741;49.446;8.754;2022-10-16T10:22:45;22.30;76.00
37910;DHT22;23741;49.446;8.754;2022-10-16T10:24:57;22.30;75.80
37910;DHT22;23741;49.446;8.754;2022-10-16T10:27:03;22.30;75.70
37910;DHT22;23741;49.446;8.754;2022-10-16T10:29:14;22.30;75.60
37910;DHT22;23741;49.446;8.754;2022-10-16T10:31:21;22.30;75.50
37910;DHT22;23741;49.446;8.754;2022-10-16T10:33:28;22.30;75.60
37910;DHT22;23741;49.446;8.754;2022-10-16T10:35:42;22.40;75.90
37910;DHT22;23741;49.446;8.754;2022-10-16T10:39:53;22.40;75.80
37910;DHT22;23741;49.446;8.754;2022-10-16T10:46:05;22.60;76.40
37910;DHT22;23741;49.446;8.754;2022-10-16T10:48:14;22.60;76.50
37910;DHT22;23741;49.446;8.754;2022-10-16T10:54:39;22.90;76.70
37910;DHT22;23741;49.446;8.754;2022-10-16T10:56:45;23.00;76.60
37910;DHT22;23741;49.446;8.754;2022-10-16T11:03:23;23.30;76.40
37910;DHT22;23741;49.446;8.754;2022-10-16T11:05:32;23.30;75.90
37910;DHT22;23741;49.446;8.754;2022-10-16T11:07:36;23.40;75.70
37910;DHT22;23741;49.446;8.754;2022-10-16T11:09:47;23.50;75.70
37910;DHT22;23741;49.446;8.754;2022-10-16T11:11:50;23.60;75.70
37910;DHT22;23741;49.446;8.754;2022-10-16T11:16:33;23.80;75.70
37910;DHT22;23741;49.446;8.754;2022-10-16T11:18:40;23.80;75.50
37910;DHT22;23741;49.446;8.754;2022-10-16T11:20:47;23.90;75.50
37910;DHT22;23741;49.446;8.754;2022-10-16T11:23:06;24.10;75.80
37910;DHT22;23741;49.446;8.754;2022-10-16T11:27:21;24.20;75.10
37910;DHT22;23741;49.446;8.754;2022-10-16T11:29:28;24.30;74.80
37910;DHT22;23741;49.446;8.754;2022-10-16T11:33:38;24.40;75.20
37910;DHT22;23741;49.446;8.754;2022-10-16T11:35:47;24.50;75.00
37910;DHT22;23741;49.446;8.754;2022-10-16T11:37:56;24.60;75.70
37910;DHT22;23741;49.446;8.754;2022-10-16T11:39:59;24.60;74.20
37910;DHT22;23741;49.446;8.754;2022-10-16T11:42:08;24.70;74.80
37910;DHT22;23741;49.446;8.754;2022-10-16T11:46:22;24.70;74.40
37910;DHT22;23741;49.446;8.754;2022-10-16T11:54:52;24.90;72.90
37910;DHT22;23741;49.446;8.754;2022-10-16T11:56:56;24.90;72.30
37910;DHT22;23741;49.446;8.754;2022-10-16T11:59:04;25.00;72.90
37910;DHT22;23741;49.446;8.754;2022-10-16T12:01:25;25.00;72.20
37910;DHT22;23741;49.446;8.754;2022-10-16T12:10:18;25.20;71.80
37910;DHT22;23741;49.446;8.754;2022-10-16T12:14:36;25.20;71.40
37910;DHT22;23741;49.446;8.754;2022-10-16T12:17:02;25.20;71.50
37910;DHT22;23741;49.446;8.754;2022-10-16T12:19:11;25.30;71.60
37910;DHT22;23741;49.446;8.754;2022-10-16T12:21:14;25.20;71.00
37910;DHT22;23741;49.446;8.754;2022-10-16T12:23:19;25.30;70.50
37910;DHT22;23741;49.446;8.754;2022-10-16T12:25:37;25.20;70.50
37910;DHT22;23741;49.446;8.754;2022-10-16T12:27:53;25.20;70.40
37910;DHT22;23741;49.446;8.754;2022-10-16T12:30:04;25.20;69.60
37910;DHT22;23741;49.446;8.754;2022-10-16T12:32:23;25.20;69.10
37910;DHT22;23741;49.446;8.754;2022-10-16T12:34:47;25.10;68.70
37910;DHT22;23741;49.446;8.754;2022-10-16T12:36:49;25.00;68.80
37910;DHT22;23741;49.446;8.754;2022-10-16T12:38:51;25.00;68.70
37910;DHT22;23741;49.446;8.754;2022-10-16T12:49:34;24.80;68.50
37910;DHT22;23741;49.446;8.754;2022-10-16T12:51:36;24.80;68.40
37910;DHT22;23741;49.446;8.754;2022-10-16T12:53:39;24.70;68.40
37910;DHT22;23741;49.446;8.754;2022-10-16T12:55:48;24.70;68.70
37910;DHT22;23741;49.446;8.754;2022-10-16T13:11:12;24.60;69.70
37910;DHT22;23741;49.446;8.754;2022-10-16T13:15:36;24.50;70.00
37910;DHT22;23741;49.446;8.754;2022-10-16T13:22:04;24.50;70.00
37910;DHT22;23741;49.446;8.754;2022-10-16T13:24:19;24.50;70.10
37910;DHT22;23741;49.446;8.754;2022-10-16T13:28:30;24.50;70.00
37910;DHT22;23741;49.446;8.754;2022-10-16T13:32:43;24.40;69.80
37910;DHT22;23741;49.446;8.754;2022-10-16T13:34:46;24.40;69.80
37910;DHT22;23741;49.446;8.754;2022-10-16T13:36:50;24.40;69.80
37910;DHT22;23741;49.446;8.754;2022-10-16T13:39:09;24.40;69.90
37910;DHT22;23741;49.446;8.754;2022-10-16T13:41:16;24.40;70.00
37910;DHT22;23741;49.446;8.754;2022-10-16T13:43:18;24.40;69.80
37910;DHT22;23741;49.446;8.754;2022-10-16T13:45:22;24.30;69.90
37910;DHT22;23741;49.446;8.754;2022-10-16T13:47:25;24.30;69.80
37910;DHT22;23741;49.446;8.754;2022-10-16T13:49:28;24.30;69.60
37910;DHT22;23741;49.446;8.754;2022-10-16T13:51:30;24.20;69.50
37910;DHT22;23741;49.446;8.754;2022-10-16T13:53:33;24.20;69.40
37910;DHT22;23741;49.446;8.754;2022-10-16T13:55:36;24.10;69.50
37910;DHT22;23741;49.446;8.754;2022-10-16T13:57:37;24.10;69.70
37910;DHT22;23741;49.446;8.754;2022-10-16T13:59:39;24.10;69.70
37910;DHT22;23741;49.446;8.754;2022-10-16T14:01:42;24.00;69.70
37910;DHT22;23741;49.446;8.754;2022-10-16T14:03:44;24.00;69.80
37910;DHT22;23741;49.446;8.754;2022-10-16T14:05:47;24.00;69.80
37910;DHT22;23741;49.446;8.754;2022-10-16T14:07:50;23.90;69.80
37910;DHT22;23741;49.446;8.754;2022-10-16T14:09:53;23.90;69.90
37910;DHT22;23741;49.446;8.754;2022-10-16T14:11:57;23.90;70.00
37910;DHT22;23741;49.446;8.754;2022-10-16T14:14:00;23.80;70.10
37910;DHT22;23741;49.446;8.754;2022-10-16T14:16:04;23.80;70.10
37910;DHT22;23741;49.446;8.754;2022-10-16T14:18:13;23.80;70.10
37910;DHT22;23741;49.446;8.754;2022-10-16T14:20:18;23.70;70.10
37910;DHT22;23741;49.446;8.754;2022-10-16T14:22:38;23.70;70.10
37910;DHT22;23741;49.446;8.754;2022-10-16T14:24:41;23.70;70.20
37910;DHT22;23741;49.446;8.754;2022-10-16T14:26:43;23.60;70.20
37910;DHT22;23741;49.446;8.754;2022-10-16T14:29:02;23.60;70.30
37910;DHT22;23741;49.446;8.754;2022-10-16T14:37:32;23.50;70.40
37910;DHT22;23741;49.446;8.754;2022-10-16T14:39:34;23.40;70.40
37910;DHT22;23741;49.446;8.754;2022-10-16T14:41:47;23.40;70.50
37910;DHT22;23741;49.446;8.754;2022-10-16T14:43:50;23.40;70.50
37910;DHT22;23741;49.446;8.754;2022-10-16T14:45:54;23.30;70.40
37910;DHT22;23741;49.446;8.754;2022-10-16T14:47:58;23.30;70.50